EWG7268 EDDH-LPMA
Flight info
| Callsign | EWG7268 |
|---|---|
| Flight time | N/A |
| Altitude | 34000 |
| Route | WSN5G WSN N125 ONTAZ DCT NIK/N0443F350 DCT KOVIN DCT NIDUV DCT KIHVI UN872 ERIGA UN741 AZFIC DCT LOTEE DCT PINEK DCT LIDRO |
| Aircraft | A320/M-SDE3FGHIRWY/LB1 |
Departure
| Time | 2026-05-05 08:58 |
|---|---|
| Airport | Hamburg Helmut Schmidt Airport (EDDH) |
Arrival
| Time | N/A |
|---|---|
| Airport | Cristiano Ronaldo International Airport (LPMA) |
| Time | Latitude | Longitude | Altitude | Speed | Heading |
|---|---|---|---|---|---|
| 2026-05-05 08:23 | 53.62845 | 10.00218 | 49 ft | 0 kts | 62° |
| 2026-05-05 08:48 | 53.62834 | 10.00184 | 46 ft | 4 kts | 58° |
| 2026-05-05 08:49 | 53.62818 | 10.00147 | 45 ft | 4 kts | 46° |
| 2026-05-05 08:49 | 53.62798 | 10.00122 | 45 ft | 4 kts | 7° |
| 2026-05-05 08:49 | 53.62786 | 10.00122 | 44 ft | 0 kts | 333° |
| 2026-05-05 08:55 | 53.62788 | 10.00121 | 48 ft | 2 kts | 333° |
| 2026-05-05 08:55 | 53.62826 | 10.00088 | 48 ft | 8 kts | 333° |
| 2026-05-05 08:55 | 53.62853 | 10.00016 | 48 ft | 7 kts | 276° |
| 2026-05-05 08:55 | 53.62846 | 9.99966 | 48 ft | 0 kts | 246° |
| 2026-05-05 08:57 | 53.62825 | 9.99891 | 46 ft | 11 kts | 243° |
| 2026-05-05 08:57 | 53.62825 | 9.99783 | 42 ft | 9 kts | 315° |
| 2026-05-05 08:57 | 53.62864 | 9.99749 | 44 ft | 13 kts | 334° |
| 2026-05-05 08:57 | 53.63322 | 9.99355 | 45 ft | 99 kts | 333° |
| 2026-05-05 08:58 | 53.64097 | 9.98685 | 51 ft | 149 kts | 332° |
| 2026-05-05 08:58 | 53.65116 | 9.97812 | 331 ft | 169 kts | 335° |
| 2026-05-05 08:58 | 53.66185 | 9.96925 | 1015 ft | 172 kts | 336° |
| 2026-05-05 08:58 | 53.67291 | 9.96013 | 1596 ft | 185 kts | 338° |
| 2026-05-05 08:59 | 53.68106 | 9.95344 | 1858 ft | 200 kts | 336° |
| 2026-05-05 08:59 | 53.69424 | 9.94234 | 2329 ft | 220 kts | 336° |
| 2026-05-05 08:59 | 53.70767 | 9.92928 | 3097 ft | 224 kts | 319° |
| 2026-05-05 08:59 | 53.71575 | 9.90736 | 3825 ft | 228 kts | 282° |
| 2026-05-05 09:00 | 53.71476 | 9.87963 | 4164 ft | 251 kts | 256° |
| 2026-05-05 09:00 | 53.70879 | 9.85133 | 4789 ft | 261 kts | 241° |
| 2026-05-05 09:00 | 53.69925 | 9.82555 | 5529 ft | 264 kts | 238° |
| 2026-05-05 09:00 | 53.68928 | 9.79940 | 6348 ft | 266 kts | 238° |
| 2026-05-05 09:01 | 53.67922 | 9.77306 | 7080 ft | 268 kts | 237° |
| 2026-05-05 09:01 | 53.66924 | 9.74641 | 7866 ft | 270 kts | 238° |
| 2026-05-05 09:01 | 53.65938 | 9.71932 | 8592 ft | 273 kts | 238° |
| 2026-05-05 09:01 | 53.64946 | 9.69187 | 9327 ft | 275 kts | 238° |
| 2026-05-05 09:02 | 53.63944 | 9.66416 | 10037 ft | 278 kts | 238° |
| 2026-05-05 09:02 | 53.62899 | 9.63527 | 10287 ft | 299 kts | 238° |
| 2026-05-05 09:02 | 53.61769 | 9.60419 | 10450 ft | 320 kts | 238° |
| 2026-05-05 09:02 | 53.60584 | 9.57171 | 10922 ft | 329 kts | 238° |
| 2026-05-05 09:03 | 53.59374 | 9.53867 | 11506 ft | 334 kts | 238° |
| 2026-05-05 09:03 | 53.58149 | 9.50519 | 12115 ft | 338 kts | 238° |
| 2026-05-05 09:03 | 53.56911 | 9.47134 | 12752 ft | 341 kts | 239° |
| 2026-05-05 09:03 | 53.55660 | 9.43722 | 13374 ft | 344 kts | 239° |
| 2026-05-05 09:04 | 53.54392 | 9.40276 | 13961 ft | 348 kts | 239° |
| 2026-05-05 09:04 | 53.53114 | 9.36809 | 14509 ft | 351 kts | 239° |
| 2026-05-05 09:04 | 53.51824 | 9.33315 | 15080 ft | 353 kts | 239° |
| 2026-05-05 09:04 | 53.50525 | 9.29799 | 15670 ft | 354 kts | 239° |
| 2026-05-05 09:05 | 53.49221 | 9.26278 | 16240 ft | 356 kts | 239° |
| 2026-05-05 09:05 | 53.47903 | 9.22733 | 16796 ft | 358 kts | 239° |
| 2026-05-05 09:05 | 53.46577 | 9.19170 | 17343 ft | 361 kts | 239° |
| 2026-05-05 09:05 | 53.45243 | 9.15587 | 17894 ft | 363 kts | 239° |
| 2026-05-05 09:06 | 53.43903 | 9.11984 | 18413 ft | 365 kts | 239° |
| 2026-05-05 09:06 | 53.42574 | 9.08412 | 18880 ft | 367 kts | 239° |
| 2026-05-05 09:06 | 53.41215 | 9.04768 | 19343 ft | 369 kts | 239° |
| 2026-05-05 09:06 | 53.39850 | 9.01118 | 19818 ft | 371 kts | 239° |
| 2026-05-05 09:07 | 53.38466 | 8.97439 | 20262 ft | 375 kts | 239° |
| 2026-05-05 09:07 | 53.37069 | 8.93735 | 20741 ft | 377 kts | 239° |
| 2026-05-05 09:07 | 53.35670 | 8.90021 | 21197 ft | 378 kts | 239° |
| 2026-05-05 09:07 | 53.34426 | 8.86135 | 21629 ft | 379 kts | 248° |
| 2026-05-05 09:08 | 53.33499 | 8.81996 | 22055 ft | 381 kts | 250° |
| 2026-05-05 09:08 | 53.32585 | 8.77822 | 22484 ft | 383 kts | 250° |
| 2026-05-05 09:08 | 53.31664 | 8.73633 | 22918 ft | 384 kts | 250° |
| 2026-05-05 09:08 | 53.30738 | 8.69440 | 23356 ft | 385 kts | 250° |
| 2026-05-05 09:09 | 53.29804 | 8.65227 | 23728 ft | 387 kts | 250° |
| 2026-05-05 09:09 | 53.28870 | 8.61004 | 24076 ft | 388 kts | 250° |
| 2026-05-05 09:09 | 53.27936 | 8.56758 | 24426 ft | 390 kts | 250° |
| 2026-05-05 09:09 | 53.27001 | 8.52502 | 24771 ft | 391 kts | 250° |
| 2026-05-05 09:10 | 53.26075 | 8.48223 | 25117 ft | 392 kts | 251° |
| 2026-05-05 09:10 | 53.25214 | 8.43892 | 25441 ft | 393 kts | 252° |
| 2026-05-05 09:10 | 53.24401 | 8.39534 | 25775 ft | 394 kts | 253° |
| 2026-05-05 09:10 | 53.23607 | 8.35150 | 26100 ft | 395 kts | 253° |
| 2026-05-05 09:11 | 53.22808 | 8.30746 | 26423 ft | 396 kts | 253° |
| 2026-05-05 09:11 | 53.21996 | 8.26341 | 26741 ft | 398 kts | 252° |
| 2026-05-05 09:11 | 53.21166 | 8.21915 | 27049 ft | 399 kts | 252° |
| 2026-05-05 09:11 | 53.20325 | 8.17497 | 27377 ft | 400 kts | 252° |
| 2026-05-05 09:12 | 53.19486 | 8.13120 | 27676 ft | 402 kts | 252° |
| 2026-05-05 09:12 | 53.18623 | 8.08620 | 27980 ft | 403 kts | 252° |
| 2026-05-05 09:12 | 53.17776 | 8.04158 | 28279 ft | 404 kts | 252° |
| 2026-05-05 09:12 | 53.16932 | 7.99677 | 28562 ft | 406 kts | 252° |
| 2026-05-05 09:13 | 53.16099 | 7.95239 | 28843 ft | 407 kts | 252° |
| 2026-05-05 09:13 | 53.15246 | 7.90728 | 29111 ft | 409 kts | 252° |
| 2026-05-05 09:13 | 53.14387 | 7.86197 | 29358 ft | 410 kts | 252° |
| 2026-05-05 09:13 | 53.13515 | 7.81602 | 29618 ft | 412 kts | 252° |
| 2026-05-05 09:14 | 53.12658 | 7.77107 | 29870 ft | 413 kts | 252° |
| 2026-05-05 09:14 | 53.11787 | 7.72543 | 30101 ft | 414 kts | 252° |
| 2026-05-05 09:14 | 53.10912 | 7.67977 | 30369 ft | 414 kts | 251° |
| 2026-05-05 09:14 | 53.10020 | 7.63367 | 30689 ft | 413 kts | 251° |
| 2026-05-05 09:15 | 53.09149 | 7.58882 | 30938 ft | 412 kts | 251° |
| 2026-05-05 09:15 | 53.08269 | 7.54345 | 31222 ft | 411 kts | 251° |
| 2026-05-05 09:15 | 53.07390 | 7.49822 | 31525 ft | 410 kts | 251° |
| 2026-05-05 09:15 | 53.06515 | 7.45311 | 31832 ft | 409 kts | 251° |
| 2026-05-05 09:16 | 53.05642 | 7.40829 | 32151 ft | 407 kts | 251° |
| 2026-05-05 09:16 | 53.04766 | 7.36341 | 32465 ft | 406 kts | 251° |
| 2026-05-05 09:16 | 53.03895 | 7.31893 | 32777 ft | 404 kts | 251° |
| 2026-05-05 09:16 | 53.03025 | 7.27466 | 33073 ft | 403 kts | 251° |
| 2026-05-05 09:17 | 53.01986 | 7.23186 | 33452 ft | 398 kts | 242° |
| 2026-05-05 09:17 | 53.00540 | 7.19292 | 33831 ft | 395 kts | 233° |
| 2026-05-05 09:17 | 52.98735 | 7.15863 | 33951 ft | 393 kts | 227° |
| 2026-05-05 09:18 | 52.94976 | 7.09380 | 33973 ft | 389 kts | 227° |
| 2026-05-05 09:18 | 52.91222 | 7.02861 | 33965 ft | 392 kts | 227° |
| 2026-05-05 09:19 | 52.87454 | 6.96344 | 33965 ft | 392 kts | 227° |
| 2026-05-05 09:19 | 52.83672 | 6.89838 | 33962 ft | 392 kts | 227° |
| 2026-05-05 09:20 | 52.79885 | 6.83351 | 33940 ft | 391 kts | 227° |
| 2026-05-05 09:20 | 52.76104 | 6.76887 | 33959 ft | 390 kts | 227° |
| 2026-05-05 09:21 | 52.72335 | 6.70467 | 33968 ft | 389 kts | 227° |
| 2026-05-05 09:21 | 52.68560 | 6.64056 | 33958 ft | 389 kts | 227° |
| 2026-05-05 09:22 | 52.64801 | 6.57660 | 33956 ft | 389 kts | 227° |
| 2026-05-05 09:22 | 52.61059 | 6.51310 | 33949 ft | 388 kts | 227° |
| 2026-05-05 09:23 | 52.57261 | 6.44895 | 33921 ft | 389 kts | 226° |
| 2026-05-05 09:23 | 52.53478 | 6.38523 | 33928 ft | 389 kts | 226° |
| 2026-05-05 09:24 | 52.49689 | 6.32160 | 33931 ft | 389 kts | 226° |
| 2026-05-05 09:24 | 52.45900 | 6.25799 | 33933 ft | 390 kts | 226° |
| 2026-05-05 09:25 | 52.42102 | 6.19457 | 33935 ft | 390 kts | 226° |
| 2026-05-05 09:25 | 52.38324 | 6.13165 | 33934 ft | 390 kts | 226° |
| 2026-05-05 09:26 | 52.34524 | 6.06838 | 33940 ft | 389 kts | 226° |
| 2026-05-05 09:26 | 52.30732 | 6.00545 | 33949 ft | 388 kts | 226° |
| 2026-05-05 09:27 | 52.26937 | 5.94279 | 33949 ft | 387 kts | 226° |
| 2026-05-05 09:27 | 52.23149 | 5.88004 | 33941 ft | 388 kts | 227° |
| 2026-05-05 09:28 | 52.19425 | 5.81609 | 33927 ft | 389 kts | 227° |
| 2026-05-05 09:28 | 52.15722 | 5.75162 | 33925 ft | 390 kts | 227° |
| 2026-05-05 09:29 | 52.12001 | 5.68730 | 33916 ft | 390 kts | 227° |
| 2026-05-05 09:29 | 52.08272 | 5.62342 | 33932 ft | 389 kts | 227° |
| 2026-05-05 09:30 | 52.04543 | 5.55968 | 33944 ft | 389 kts | 227° |
| 2026-05-05 09:30 | 52.00821 | 5.49613 | 33942 ft | 388 kts | 227° |
| 2026-05-05 09:31 | 51.97097 | 5.43264 | 33939 ft | 388 kts | 226° |
| 2026-05-05 09:31 | 51.93368 | 5.36938 | 33953 ft | 388 kts | 227° |
| 2026-05-05 09:32 | 51.89625 | 5.30604 | 33919 ft | 390 kts | 226° |
| 2026-05-05 09:32 | 51.85867 | 5.24258 | 33921 ft | 391 kts | 226° |
| 2026-05-05 09:33 | 51.82093 | 5.17902 | 33918 ft | 391 kts | 226° |
| 2026-05-05 09:33 | 51.78313 | 5.11556 | 33912 ft | 392 kts | 226° |
| 2026-05-05 09:34 | 51.74527 | 5.05203 | 33917 ft | 392 kts | 226° |
| 2026-05-05 09:34 | 51.70739 | 4.98866 | 33926 ft | 392 kts | 226° |
| 2026-05-05 09:35 | 51.66943 | 4.92540 | 33917 ft | 392 kts | 225° |
| 2026-05-05 09:35 | 51.61888 | 4.84142 | 33934 ft | 392 kts | 225° |
| 2026-05-05 09:36 | 51.58081 | 4.77819 | 33935 ft | 393 kts | 226° |
| 2026-05-05 09:36 | 51.54260 | 4.71503 | 33927 ft | 394 kts | 225° |
| 2026-05-05 09:37 | 51.50419 | 4.65185 | 33919 ft | 395 kts | 225° |
| 2026-05-05 09:37 | 51.46579 | 4.58865 | 33913 ft | 396 kts | 225° |
| 2026-05-05 09:38 | 51.42734 | 4.52543 | 33921 ft | 396 kts | 225° |
| 2026-05-05 09:38 | 51.38880 | 4.46235 | 33925 ft | 396 kts | 225° |
| 2026-05-05 09:39 | 51.35024 | 4.39943 | 33933 ft | 396 kts | 224° |
| 2026-05-05 09:39 | 51.31169 | 4.33663 | 33932 ft | 396 kts | 224° |
| 2026-05-05 09:40 | 51.27305 | 4.27395 | 33925 ft | 396 kts | 224° |
| 2026-05-05 09:40 | 51.23436 | 4.21142 | 33920 ft | 396 kts | 224° |
| 2026-05-05 09:41 | 51.19579 | 4.14929 | 33915 ft | 397 kts | 224° |
| 2026-05-05 09:41 | 51.15699 | 4.08658 | 33916 ft | 397 kts | 224° |
| 2026-05-05 09:42 | 51.11812 | 4.02406 | 33918 ft | 397 kts | 224° |
| 2026-05-05 09:42 | 51.07920 | 3.96169 | 33916 ft | 397 kts | 224° |
| 2026-05-05 09:43 | 51.04024 | 3.89938 | 33909 ft | 397 kts | 224° |
| 2026-05-05 09:43 | 51.00123 | 3.83726 | 33906 ft | 397 kts | 224° |
| 2026-05-05 09:44 | 50.96213 | 3.77511 | 33910 ft | 397 kts | 224° |
| 2026-05-05 09:44 | 50.92305 | 3.71307 | 33907 ft | 398 kts | 224° |
| 2026-05-05 09:45 | 50.88381 | 3.65089 | 33915 ft | 399 kts | 224° |
| 2026-05-05 09:45 | 50.84453 | 3.58884 | 33908 ft | 399 kts | 224° |
| 2026-05-05 09:46 | 50.80516 | 3.52694 | 33899 ft | 399 kts | 223° |
| 2026-05-05 09:46 | 50.76571 | 3.46488 | 33901 ft | 400 kts | 223° |
| 2026-05-05 09:47 | 50.72616 | 3.40296 | 33910 ft | 400 kts | 223° |
| 2026-05-05 09:47 | 50.68680 | 3.34161 | 33901 ft | 401 kts | 223° |
| 2026-05-05 09:48 | 50.64716 | 3.27984 | 33897 ft | 401 kts | 223° |
| 2026-05-05 09:48 | 50.60747 | 3.21799 | 33919 ft | 401 kts | 223° |
| 2026-05-05 09:49 | 50.56765 | 3.15619 | 33900 ft | 402 kts | 223° |
| 2026-05-05 09:49 | 50.52776 | 3.09433 | 33904 ft | 403 kts | 223° |
| 2026-05-05 09:50 | 50.48772 | 3.03254 | 33905 ft | 404 kts | 223° |
| 2026-05-05 09:50 | 50.44759 | 2.97074 | 33913 ft | 404 kts | 223° |
| 2026-05-05 09:51 | 50.40730 | 2.90906 | 33905 ft | 404 kts | 223° |
| 2026-05-05 09:51 | 50.36709 | 2.84752 | 33904 ft | 404 kts | 223° |
| 2026-05-05 09:52 | 50.32673 | 2.78586 | 33908 ft | 404 kts | 223° |
| 2026-05-05 09:52 | 50.28644 | 2.72443 | 33914 ft | 405 kts | 223° |
| 2026-05-05 09:53 | 50.24607 | 2.66292 | 33903 ft | 405 kts | 223° |
| 2026-05-05 09:53 | 50.20559 | 2.60151 | 33904 ft | 406 kts | 223° |
| 2026-05-05 09:54 | 50.16501 | 2.54019 | 33915 ft | 406 kts | 222° |
| 2026-05-05 09:54 | 50.12445 | 2.47894 | 33907 ft | 406 kts | 222° |
| 2026-05-05 09:55 | 50.08380 | 2.41771 | 33905 ft | 406 kts | 222° |
| 2026-05-05 09:55 | 50.04308 | 2.35668 | 33905 ft | 406 kts | 222° |
| 2026-05-05 09:56 | 50.00230 | 2.29573 | 33901 ft | 406 kts | 222° |
| 2026-05-05 09:56 | 49.96148 | 2.23478 | 33918 ft | 406 kts | 222° |
| 2026-05-05 09:57 | 49.92075 | 2.17404 | 33898 ft | 406 kts | 222° |
| 2026-05-05 09:57 | 49.88021 | 2.11368 | 33893 ft | 406 kts | 222° |
| 2026-05-05 09:58 | 49.83934 | 2.05309 | 33889 ft | 407 kts | 221° |
| 2026-05-05 09:58 | 49.79841 | 1.99259 | 33888 ft | 407 kts | 221° |
| 2026-05-05 09:59 | 49.75741 | 1.93204 | 33882 ft | 407 kts | 221° |
| 2026-05-05 09:59 | 49.71642 | 1.87160 | 33886 ft | 407 kts | 221° |
| 2026-05-05 10:00 | 49.67534 | 1.81134 | 33875 ft | 408 kts | 221° |
| 2026-05-05 10:00 | 49.63413 | 1.75104 | 33889 ft | 408 kts | 221° |
| 2026-05-05 10:01 | 49.59291 | 1.69079 | 33883 ft | 408 kts | 221° |
| 2026-05-05 10:01 | 49.55167 | 1.63054 | 33884 ft | 408 kts | 221° |
| 2026-05-05 10:02 | 49.51039 | 1.57051 | 33895 ft | 408 kts | 221° |
| 2026-05-05 10:02 | 49.46899 | 1.51056 | 33895 ft | 409 kts | 220° |
| 2026-05-05 10:03 | 49.42741 | 1.45057 | 33900 ft | 410 kts | 220° |
| 2026-05-05 10:03 | 49.38584 | 1.39052 | 33903 ft | 410 kts | 220° |
| 2026-05-05 10:04 | 49.34458 | 1.33092 | 33923 ft | 410 kts | 220° |
| 2026-05-05 10:04 | 49.30304 | 1.27112 | 33921 ft | 410 kts | 220° |
| 2026-05-05 10:05 | 49.26136 | 1.21144 | 33915 ft | 410 kts | 220° |
| 2026-05-05 10:05 | 49.21958 | 1.15183 | 33906 ft | 410 kts | 220° |
| 2026-05-05 10:06 | 49.17779 | 1.09234 | 33883 ft | 410 kts | 220° |
| 2026-05-05 10:06 | 49.13603 | 1.03293 | 33879 ft | 410 kts | 220° |
| 2026-05-05 10:07 | 49.09432 | 0.97364 | 33877 ft | 410 kts | 220° |
| 2026-05-05 10:07 | 49.05251 | 0.91442 | 33872 ft | 410 kts | 219° |
| 2026-05-05 10:08 | 49.01063 | 0.85527 | 33887 ft | 411 kts | 219° |
| 2026-05-05 10:08 | 48.96872 | 0.79619 | 33886 ft | 411 kts | 219° |
| 2026-05-05 10:09 | 48.92675 | 0.73716 | 33884 ft | 411 kts | 219° |
| 2026-05-05 10:09 | 48.88475 | 0.67832 | 33878 ft | 411 kts | 219° |
| 2026-05-05 10:10 | 48.84294 | 0.61984 | 33878 ft | 411 kts | 219° |
| 2026-05-05 10:10 | 48.80092 | 0.56119 | 33875 ft | 411 kts | 219° |
| 2026-05-05 10:11 | 48.75881 | 0.50266 | 33879 ft | 411 kts | 219° |
| 2026-05-05 10:11 | 48.71664 | 0.44403 | 33879 ft | 411 kts | 219° |
| 2026-05-05 10:12 | 48.67450 | 0.38558 | 33885 ft | 411 kts | 219° |
| 2026-05-05 10:12 | 48.63228 | 0.32717 | 33882 ft | 411 kts | 218° |
| 2026-05-05 10:13 | 48.58994 | 0.26882 | 33871 ft | 412 kts | 218° |
| 2026-05-05 10:13 | 48.54751 | 0.21056 | 33865 ft | 412 kts | 218° |
| 2026-05-05 10:14 | 48.50501 | 0.15233 | 33866 ft | 413 kts | 218° |
| 2026-05-05 10:14 | 48.46254 | 0.09406 | 33865 ft | 413 kts | 218° |
| 2026-05-05 10:15 | 48.41997 | 0.03577 | 33875 ft | 413 kts | 218° |
| 2026-05-05 10:15 | 48.38457 | -0.01256 | 33880 ft | 414 kts | 218° |
| 2026-05-05 10:16 | 48.34557 | -0.07666 | 33868 ft | 420 kts | 229° |
| 2026-05-05 10:16 | 48.31076 | -0.14731 | 33869 ft | 421 kts | 229° |
| 2026-05-05 10:17 | 48.27571 | -0.21796 | 33868 ft | 421 kts | 229° |